Jack northrop Field Hawthorne Municipal Airport Hawthorne US
ICAO: KHHR
IATA: HHR
Category: Medium
Scheduled Services: No

Elevation: 66 ft
TransAlt. 18000 ft.

Airport Communications:
SOCAL APP:124.3
ATIS:118.4
CTAF:121.1
SOCAL DEP:124.3
GND:125.1
HAWTHORNE RDO:122.2
TWR:121.1

KHHR Zoom In..

If Map Doesn't Load, Click Here

Runways:

(A) RW 07 length 4956 ft width 100 ft
LOC 109.10 / hdg 73

(B) RW 25 length 4956 ft width 100 ft
LOC 109.10 / hdg 253

Location; KHHR
Day. 26 / Time. 09.53 Zulu
* Altimeter: 29.94
* Temperature: 18° c. 64.4°f.
* Wind from: 220° Speed 04 kn.
Dewpoint: 16° c.
Visibility: 8 Statute Miles.
Clouds: Overcast 900 ft.

KHHR 260953Z AUTO 22004KT 8SM OVC009 18/16 A2994 RMK AO2 SLP139 T01780156


Wind From 220°
Speed 04 kn.

 
 
jpsmedia.com for Web Design worldairports.se 2018   terms of use